createdAt,value
2023-01-10T00:01:29.446Z,99554.52
2023-01-10T00:04:01.824Z,99551.42
2023-01-10T00:06:36.711Z,99555.41
2023-01-10T00:09:10.620Z,99565.16
2023-01-10T00:12:01.039Z,99564.90
2023-01-10T00:14:37.525Z,99567.52
2023-01-10T00:17:08.484Z,99569.05
2023-01-10T00:19:40.948Z,99578.29
2023-01-10T00:22:11.851Z,99582.59
2023-01-10T00:24:42.639Z,99583.79
2023-01-10T00:27:24.318Z,99587.36
2023-01-10T00:29:56.826Z,99588.88
2023-01-10T00:32:33.709Z,99590.23
2023-01-10T00:35:13.395Z,99592.46
2023-01-10T00:37:49.662Z,99587.04
2023-01-10T00:40:21.775Z,99585.50
2023-01-10T00:43:23.598Z,99587.21
2023-01-10T00:45:55.633Z,99590.48
2023-01-10T00:48:25.917Z,99594.74
2023-01-10T00:50:55.381Z,99600.90
2023-01-10T00:53:27.475Z,99607.40
2023-01-10T00:55:58.431Z,99610.48
2023-01-10T00:58:30.382Z,99611.48
2023-01-10T01:01:03.433Z,99613.83
2023-01-10T01:03:38.903Z,99617.07
2023-01-10T01:06:09.205Z,99623.57
2023-01-10T01:08:38.759Z,99625.98
2023-01-10T01:11:11.039Z,99630.77
2023-01-10T01:13:47.410Z,99630.58
2023-01-10T01:16:23.183Z,99632.48
2023-01-10T01:18:53.478Z,99637.53
2023-01-10T01:21:29.465Z,99638.91
2023-01-10T01:24:09.508Z,99641.00
2023-01-10T01:26:43.046Z,99646.34
2023-01-10T01:29:17.276Z,99646.69
2023-01-10T01:31:54.789Z,99646.01
2023-01-10T01:34:28.069Z,99648.23
2023-01-10T01:37:02.412Z,99649.30
2023-01-10T01:39:31.844Z,99647.35
2023-01-10T01:42:03.131Z,99645.66
2023-01-10T01:44:42.003Z,99647.17
2023-01-10T01:47:28.075Z,99652.34
2023-01-10T01:50:05.209Z,99657.36
2023-01-10T01:52:40.450Z,99661.03
2023-01-10T01:55:10.755Z,99659.55
2023-01-10T01:57:49.566Z,99656.55
2023-01-10T02:00:19.940Z,99658.05
2023-01-10T02:03:02.561Z,99658.16
2023-01-10T02:05:39.785Z,99655.81
2023-01-10T02:08:13.150Z,99651.42
2023-01-10T02:11:12.372Z,99647.69
2023-01-10T02:13:46.575Z,99646.38
2023-01-10T02:16:20.489Z,99646.59
2023-01-10T02:18:52.853Z,99648.17
2023-01-10T02:21:33.072Z,99651.49
2023-01-10T02:25:03.639Z,99657.79
2023-01-10T02:28:01.443Z,99659.23
2023-01-10T02:31:05.241Z,99659.08
2023-01-10T02:33:53.788Z,99660.61
2023-01-10T02:37:22.152Z,99666.76
2023-01-10T02:40:24.712Z,99670.16
2023-01-10T02:43:20.784Z,99672.84
2023-01-10T02:46:11.773Z,99673.98
2023-01-10T02:48:41.622Z,99673.18
2023-01-10T02:51:21.939Z,99675.21
2023-01-10T02:54:08.513Z,99676.94
2023-01-10T02:57:14.846Z,99684.04
2023-01-10T03:00:23.203Z,99683.59
2023-01-10T03:03:33.137Z,99683.70
2023-01-10T03:06:27.199Z,99687.27
2023-01-10T03:09:13.376Z,99688.88
2023-01-10T03:11:49.161Z,99691.52
2023-01-10T03:14:30.813Z,99699.49
2023-01-10T03:17:11.413Z,99705.60
2023-01-10T03:19:56.708Z,99710.09
2023-01-10T03:22:36.249Z,99714.13
2023-01-10T03:25:13.926Z,99716.73
2023-01-10T03:28:05.237Z,99722.07
2023-01-10T03:30:54.685Z,99730.02
2023-01-10T03:33:35.030Z,99736.76
2023-01-10T03:36:43.470Z,99743.63
2023-01-10T03:39:31.157Z,99752.09
2023-01-10T03:42:20.574Z,99756.40
2023-01-10T03:45:09.175Z,99765.66
2023-01-10T03:47:55.091Z,99774.62
2023-01-10T03:50:33.095Z,99774.77
2023-01-10T03:53:03.296Z,99778.41
2023-01-10T03:55:38.883Z,99778.77
2023-01-10T03:58:11.196Z,99784.59
2023-01-10T04:00:47.631Z,99790.58
2023-01-10T04:03:17.465Z,99793.52
2023-01-10T04:05:47.356Z,99798.15
2023-01-10T04:08:26.699Z,99800.20
2023-01-10T04:11:04.902Z,99804.32
2023-01-10T04:13:47.306Z,99806.39
2023-01-10T04:16:36.061Z,99804.02
2023-01-10T04:19:14.928Z,99810.25
2023-01-10T04:21:48.320Z,99808.34
2023-01-10T04:24:20.465Z,99814.91
2023-01-10T04:26:50.364Z,99820.23
2023-01-10T04:29:27.390Z,99826.80
2023-01-10T04:32:03.163Z,99836.76
2023-01-10T04:34:33.401Z,99842.61
2023-01-10T04:37:07.177Z,99845.67
2023-01-10T04:39:38.455Z,99849.10
2023-01-10T04:42:15.397Z,99851.65
2023-01-10T04:44:48.050Z,99854.89
2023-01-10T04:47:22.048Z,99858.86
2023-01-10T04:50:32.404Z,99865.42
2023-01-10T04:53:18.440Z,99870.46
2023-01-10T04:56:11.575Z,99880.96
2023-01-10T04:58:47.553Z,99888.88
2023-01-10T05:01:28.495Z,99893.16
2023-01-10T05:04:03.489Z,99897.13
2023-01-10T05:06:40.640Z,99902.45
2023-01-10T05:09:14.045Z,99901.10
2023-01-10T05:11:48.858Z,99904.54
2023-01-10T05:14:22.355Z,99908.81
2023-01-10T05:16:56.835Z,99915.86
2023-01-10T05:19:28.819Z,99920.31
2023-01-10T05:22:00.585Z,99918.91
2023-01-10T05:24:30.304Z,99922.33
2023-01-10T05:27:06.035Z,99925.56
2023-01-10T05:29:39.894Z,99920.20
2023-01-10T05:32:09.570Z,99926.55
2023-01-10T05:34:42.925Z,99931.22
2023-01-10T05:37:14.925Z,99935.53
2023-01-10T05:39:51.872Z,99939.31
2023-01-10T05:42:30.927Z,99945.71
2023-01-10T05:45:08.139Z,99949.70
2023-01-10T05:47:42.950Z,99953.52
2023-01-10T05:50:13.343Z,99956.79
2023-01-10T05:52:48.890Z,99959.95
2023-01-10T05:55:22.999Z,99967.74
2023-01-10T05:57:59.937Z,99970.02
2023-01-10T06:00:32.269Z,99973.50
2023-01-10T06:03:07.964Z,99978.49
2023-01-10T06:05:49.710Z,99981.75
2023-01-10T06:08:24.880Z,99984.02
2023-01-10T06:10:55.930Z,99987.84
2023-01-10T06:13:27.507Z,99991.48
2023-01-10T06:15:58.137Z,100000.12
2023-01-10T06:18:32.390Z,100012.54
2023-01-10T06:21:13.762Z,100021.17
2023-01-10T06:23:45.978Z,100028.61
2023-01-10T06:26:19.012Z,100029.47
2023-01-10T06:28:50.856Z,100037.57
2023-01-10T06:31:22.581Z,100041.00
2023-01-10T06:33:53.160Z,100043.94
2023-01-10T06:36:22.760Z,100050.13
2023-01-10T06:38:55.604Z,100048.92
2023-01-10T06:41:27.427Z,100055.44
2023-01-10T06:43:56.958Z,100059.70
2023-01-10T06:46:26.498Z,100063.81
2023-01-10T06:48:55.936Z,100069.80
2023-01-10T06:51:25.331Z,100075.91
2023-01-10T06:53:58.993Z,100078.64
2023-01-10T06:56:29.555Z,100084.11
2023-01-10T06:59:01.642Z,100089.96
2023-01-10T07:01:32.129Z,100094.60
2023-01-10T07:04:01.366Z,100104.38
2023-01-10T07:06:31.877Z,100110.88
2023-01-10T07:09:01.164Z,100121.02
2023-01-10T07:11:32.231Z,100124.59
2023-01-10T07:14:03.336Z,100128.33
2023-01-10T07:16:32.972Z,100132.58
2023-01-10T07:19:02.583Z,100134.25
2023-01-10T07:21:34.839Z,100138.68
2023-01-10T07:24:05.046Z,100144.32
2023-01-10T07:26:34.433Z,100146.66
2023-01-10T07:29:03.687Z,100150.05
2023-01-10T07:31:35.215Z,100155.64
2023-01-10T07:34:05.325Z,100159.69
2023-01-10T07:36:39.537Z,100161.00
2023-01-10T07:39:12.304Z,100165.80
2023-01-10T07:41:42.304Z,100171.96
2023-01-10T07:44:19.351Z,100175.00
2023-01-10T07:46:51.382Z,100176.69
2023-01-10T07:49:23.265Z,100178.57
2023-01-10T07:51:55.094Z,100180.13
2023-01-10T07:54:35.687Z,100185.63
2023-01-10T07:57:10.204Z,100190.77
2023-01-10T07:59:42.388Z,100197.35
2023-01-10T08:02:13.123Z,100200.09
2023-01-10T08:04:44.904Z,100202.50
2023-01-10T08:07:14.447Z,100205.21
2023-01-10T08:09:45.761Z,100209.63
2023-01-10T08:12:17.566Z,100211.64
2023-01-10T08:14:56.710Z,100216.27
2023-01-10T08:17:30.550Z,100220.15
2023-01-10T08:20:05.490Z,100223.13
2023-01-10T08:22:46.076Z,100228.25
2023-01-10T08:25:22.330Z,100233.59
2023-01-10T08:28:04.943Z,100235.02
2023-01-10T08:30:41.276Z,100237.33
2023-01-10T08:33:24.896Z,100239.33
2023-01-10T08:36:11.245Z,100239.16
2023-01-10T08:38:48.441Z,100246.55
2023-01-10T08:41:36.252Z,100252.71
2023-01-10T08:44:09.453Z,100254.05
2023-01-10T08:46:51.139Z,100256.60
2023-01-10T08:49:29.799Z,100263.98
2023-01-10T08:52:08.939Z,100264.46
2023-01-10T08:54:50.344Z,100265.60
2023-01-10T08:57:30.756Z,100265.16
2023-01-10T09:00:14.880Z,100269.09
2023-01-10T09:02:49.604Z,100273.17
2023-01-10T09:05:30.734Z,100276.95
2023-01-10T09:08:09.711Z,100278.96
2023-01-10T09:10:49.167Z,100279.00
2023-01-10T09:13:26.795Z,100281.68
2023-01-10T09:16:02.718Z,100288.42
2023-01-10T09:18:38.230Z,100291.05
2023-01-10T09:21:11.223Z,100292.09
2023-01-10T09:23:48.650Z,100299.30
2023-01-10T09:26:21.710Z,100295.61
2023-01-10T09:28:54.199Z,100296.27
2023-01-10T09:31:26.989Z,100294.85
2023-01-10T09:37:38.295Z,100301.35
2023-01-10T09:40:19.783Z,100300.05
2023-01-10T09:43:22.119Z,100299.45
2023-01-10T09:46:26.921Z,100304.09
2023-01-10T09:49:46.353Z,100301.51
2023-01-10T09:52:34.893Z,100301.36
2023-01-10T09:55:32.496Z,100303.94
2023-01-10T09:58:39.239Z,100305.53
2023-01-10T10:01:37.169Z,100308.45
2023-01-10T10:04:25.381Z,100315.30
2023-01-10T10:07:13.199Z,100318.88
2023-01-10T10:09:56.424Z,100320.40
2023-01-10T10:13:26.983Z,100322.00
2023-01-10T10:16:38.000Z,100328.09
2023-01-10T10:19:56.024Z,100335.31
2023-01-10T10:23:34.018Z,100334.84
2023-01-10T10:26:51.278Z,100337.84
2023-01-10T10:30:23.469Z,100346.40
2023-01-10T10:33:51.248Z,100348.77
2023-01-10T10:37:06.110Z,100353.52
2023-01-10T10:39:59.346Z,100355.90
2023-01-10T10:42:49.377Z,100358.13
2023-01-10T10:45:46.732Z,100361.70
2023-01-10T10:48:40.116Z,100366.27
2023-01-10T10:51:26.163Z,100373.45
2023-01-10T10:53:57.559Z,100377.75
2023-01-10T10:56:31.962Z,100379.20
2023-01-10T10:59:04.903Z,100379.64
2023-01-10T11:01:38.888Z,100375.94
2023-01-10T11:04:16.333Z,100376.81
2023-01-10T11:06:49.464Z,100380.70
2023-01-10T11:09:39.768Z,100382.02
2023-01-10T11:12:22.407Z,100384.91
2023-01-10T11:15:00.391Z,100378.29
2023-01-10T11:17:35.886Z,100380.90
2023-01-10T11:20:15.938Z,100381.98
2023-01-10T11:22:55.734Z,100377.48
2023-01-10T11:25:27.458Z,100376.29
2023-01-10T11:28:05.216Z,100373.52
2023-01-10T11:30:55.407Z,100374.34
2023-01-10T11:33:35.791Z,100373.74
2023-01-10T11:36:16.242Z,100381.11
2023-01-10T11:39:19.740Z,100388.05
2023-01-10T11:41:55.656Z,100395.83
2023-01-10T11:44:30.490Z,100400.97
2023-01-10T11:47:15.119Z,100403.37
2023-01-10T11:49:55.812Z,100411.30
2023-01-10T11:52:36.219Z,100413.36
2023-01-10T11:55:20.297Z,100414.05
2023-01-10T11:58:24.495Z,100415.20
2023-01-10T12:01:07.376Z,100417.72
2023-01-10T12:03:42.334Z,100420.95
2023-01-10T12:06:19.043Z,100419.35
2023-01-10T12:08:51.859Z,100422.98
2023-01-10T12:11:36.042Z,100426.08
2023-01-10T12:14:36.268Z,100432.67
2023-01-10T12:17:20.789Z,100436.13
2023-01-10T12:20:08.573Z,100438.04
2023-01-10T12:23:10.610Z,100440.91
2023-01-10T12:26:11.435Z,100441.22
2023-01-10T12:29:11.647Z,100441.39
2023-01-10T12:31:54.697Z,100443.51
2023-01-10T12:34:44.849Z,100446.77
2023-01-10T12:37:56.138Z,100447.05
2023-01-10T12:40:56.941Z,100452.29
2023-01-10T12:44:15.185Z,100457.37
2023-01-10T12:47:25.762Z,100463.84
2023-01-10T12:58:49.630Z,100468.20
2023-01-10T13:01:40.697Z,100472.83
2023-01-10T13:17:40.875Z,100503.04
2023-01-10T13:21:22.105Z,100503.86
2023-01-10T13:24:28.829Z,100508.46
2023-01-10T13:27:24.647Z,100514.64
2023-01-10T13:29:59.119Z,100518.21
2023-01-10T13:32:34.981Z,100520.81
2023-01-10T13:35:19.321Z,100520.84
2023-01-10T13:37:59.104Z,100525.33
2023-01-10T13:40:38.301Z,100529.95
2023-01-10T13:43:37.197Z,100534.66
2023-01-10T13:46:25.964Z,100541.77
2023-01-10T13:52:37.111Z,100546.27
2023-01-10T13:55:46.359Z,100549.23
2023-01-10T13:59:01.264Z,100550.52
2023-01-10T14:02:10.809Z,100550.94
2023-01-10T14:05:11.614Z,100561.03
2023-01-10T14:08:19.128Z,100564.34
2023-01-10T14:11:14.362Z,100567.42
2023-01-10T14:13:56.679Z,100568.05
2023-01-10T14:19:34.834Z,100567.92
2023-01-10T14:22:34.150Z,100573.62
2023-01-10T14:25:21.546Z,100584.70
2023-01-10T14:28:01.988Z,100590.06
2023-01-10T14:30:52.403Z,100596.49
2023-01-10T14:33:30.783Z,100596.33
2023-01-10T14:36:16.669Z,100593.72
2023-01-10T14:39:09.772Z,100597.56
2023-01-10T14:42:00.770Z,100602.42
2023-01-10T14:44:46.234Z,100607.80
2023-01-10T14:47:47.243Z,100612.31
2023-01-10T14:50:32.769Z,100617.27
2023-01-10T14:53:27.116Z,100620.38
2023-01-10T14:56:00.601Z,100618.81
2023-01-10T14:58:34.218Z,100620.55
2023-01-10T15:01:18.819Z,100623.36
2023-01-10T15:04:09.574Z,100628.73
2023-01-10T15:07:02.014Z,100631.23
2023-01-10T15:09:55.714Z,100629.86
2023-01-10T15:12:46.233Z,100628.19
2023-01-10T15:15:24.925Z,100630.39
2023-01-10T15:18:45.142Z,100629.33
2023-01-10T15:21:33.253Z,100633.45
2023-01-10T15:27:48.454Z,100644.98
2023-01-10T15:31:01.078Z,100654.45
2023-01-10T15:33:36.758Z,100658.77
2023-01-10T15:36:21.551Z,100656.65
2023-01-10T15:38:57.961Z,100660.77
2023-01-10T15:41:38.567Z,100660.77
2023-01-10T15:44:54.708Z,100657.48
2023-01-10T15:47:53.161Z,100664.23
2023-01-10T15:50:38.962Z,100666.31
2023-01-10T15:53:14.030Z,100666.30
2023-01-10T15:55:58.687Z,100669.09
2023-01-10T15:58:37.076Z,100673.27
2023-01-10T16:01:17.239Z,100680.54
2023-01-10T16:03:59.055Z,100681.75
2023-01-10T16:06:40.678Z,100683.48
2023-01-10T16:09:21.805Z,100687.00
2023-01-10T16:12:13.320Z,100690.67
2023-01-10T16:14:43.620Z,100690.56
2023-01-10T16:17:19.174Z,100698.03
2023-01-10T16:19:54.389Z,100702.39
2023-01-10T16:22:28.932Z,100705.00
2023-01-10T16:24:59.658Z,100706.75
2023-01-10T16:27:33.813Z,100712.14
2023-01-10T16:30:57.195Z,100715.44
2023-01-10T16:33:29.423Z,100719.67
2023-01-10T16:36:01.119Z,100723.63
2023-01-10T16:38:34.019Z,100722.38
2023-01-10T16:41:30.649Z,100724.11
2023-01-10T16:44:12.259Z,100723.98
2023-01-10T16:47:13.393Z,100721.43
2023-01-10T16:54:45.125Z,100719.80
2023-01-10T16:58:05.329Z,100724.88
2023-01-10T17:09:09.786Z,100734.63
2023-01-10T17:12:10.567Z,100736.67
2023-01-10T17:15:18.850Z,100735.63
2023-01-10T17:18:23.849Z,100738.04
2023-01-10T17:21:30.989Z,100737.34
2023-01-10T17:24:39.705Z,100734.75
2023-01-10T17:27:56.650Z,100732.33
2023-01-10T17:41:38.773Z,100736.95
2023-01-10T17:44:49.386Z,100737.30
2023-01-10T17:48:19.836Z,100742.31
2023-01-10T17:51:37.462Z,100750.77
2023-01-10T17:54:34.195Z,100750.91
2023-01-10T17:57:49.712Z,100754.14
2023-01-10T18:00:30.746Z,100754.48
2023-01-10T18:03:48.006Z,100759.46
2023-01-10T18:06:30.131Z,100766.89
2023-01-10T18:09:13.567Z,100773.44
2023-01-10T18:12:18.163Z,100780.14
2023-01-10T18:15:04.078Z,100783.24
2023-01-10T18:18:09.440Z,100788.36
2023-01-10T18:21:36.755Z,100789.58
2023-01-10T18:28:07.546Z,100792.66
2023-01-10T18:30:52.619Z,100795.54
2023-01-10T18:33:57.237Z,100804.77
2023-01-10T18:36:51.866Z,100811.33
2023-01-10T18:43:16.067Z,100813.33
2023-01-10T18:45:51.885Z,100815.02
2023-01-10T18:49:33.717Z,100825.34
2023-01-10T18:52:28.011Z,100828.42
2023-01-10T18:55:13.336Z,100828.91
2023-01-10T18:58:15.710Z,100830.77
2023-01-10T19:01:19.739Z,100831.11
2023-01-10T19:03:58.165Z,100836.83
2023-01-10T19:06:37.255Z,100842.50
2023-01-10T19:12:38.633Z,100840.63
2023-01-10T19:15:45.975Z,100836.64
2023-01-10T19:18:35.700Z,100840.45
2023-01-10T19:24:08.636Z,100847.70
2023-01-10T19:26:58.057Z,100847.54
2023-01-10T19:29:55.506Z,100842.70
2023-01-10T19:32:59.783Z,100840.69
2023-01-10T19:39:25.227Z,100840.11
2023-01-10T19:42:10.879Z,100842.33
2023-01-10T19:44:56.685Z,100837.61
2023-01-10T19:47:50.279Z,100836.56
2023-01-10T19:50:31.432Z,100837.62
2023-01-10T19:53:17.662Z,100839.69
2023-01-10T19:56:10.411Z,100845.90
2023-01-10T19:59:23.245Z,100841.39
2023-01-10T20:03:10.943Z,100839.16
2023-01-10T20:42:40.104Z,100830.01
2023-01-10T20:51:58.787Z,100832.67
2023-01-10T20:54:34.741Z,100831.61
2023-01-10T20:58:18.651Z,100837.00
2023-01-10T21:25:38.919Z,100838.78
2023-01-10T21:35:59.583Z,100838.77
2023-01-10T21:38:51.489Z,100841.23
2023-01-10T21:46:17.877Z,100836.45
2023-01-10T21:52:37.567Z,100838.92
2023-01-10T22:01:44.567Z,100843.46
2023-01-10T22:04:38.044Z,100841.90
2023-01-10T22:07:34.680Z,100845.15
2023-01-10T22:10:23.751Z,100844.41
2023-01-10T22:13:03.612Z,100842.51
2023-01-10T22:16:07.937Z,100841.29
2023-01-10T22:19:03.437Z,100842.35
2023-01-10T22:21:55.568Z,100844.58
2023-01-10T22:24:51.749Z,100840.60
2023-01-10T22:28:09.740Z,100849.77
2023-01-10T22:31:52.520Z,100851.36
2023-01-10T22:35:02.869Z,100854.52
2023-01-10T22:38:34.312Z,100851.42
2023-01-10T22:42:31.818Z,100840.53
2023-01-10T22:46:18.890Z,100841.91
2023-01-10T22:50:15.036Z,100843.98
2023-01-10T22:53:36.923Z,100843.27
2023-01-10T22:56:59.752Z,100843.98
2023-01-10T23:00:56.300Z,100846.40
2023-01-10T23:04:45.716Z,100842.44
2023-01-10T23:08:28.367Z,100843.80
2023-01-10T23:12:22.333Z,100841.87
2023-01-10T23:15:48.326Z,100841.73
2023-01-10T23:27:43.022Z,100842.48
2023-01-10T23:31:06.873Z,100837.48
2023-01-10T23:34:38.453Z,100839.05
2023-01-10T23:37:50.039Z,100833.15
2023-01-10T23:44:49.376Z,100830.58
2023-01-10T23:48:23.421Z,100835.77
2023-01-10T23:52:06.177Z,100835.45
2023-01-10T23:55:02.712Z,100835.66
2023-01-10T23:58:12.172Z,100833.42
